createdAt,value
2018-03-27T00:01:37.464Z,15.50
2018-03-27T00:04:03.744Z,16.77
2018-03-27T00:06:30.252Z,17.90
2018-03-27T00:08:56.570Z,17.67
2018-03-27T00:11:23.054Z,16.93
2018-03-27T00:13:49.341Z,18.70
2018-03-27T00:16:15.856Z,17.67
2018-03-27T00:18:42.288Z,18.53
2018-03-27T00:21:08.583Z,19.23
2018-03-27T00:23:35.027Z,17.47
2018-03-27T00:26:01.293Z,20.00
2018-03-27T00:28:39.757Z,18.90
2018-03-27T00:31:18.092Z,19.47
2018-03-27T00:33:56.678Z,19.73
2018-03-27T00:36:35.137Z,17.73
2018-03-27T00:39:13.811Z,19.43
2018-03-27T00:44:44.801Z,17.23
2018-03-27T00:47:11.356Z,16.17
2018-03-27T00:49:37.664Z,16.60
2018-03-27T00:52:04.129Z,15.00
2018-03-27T00:54:30.533Z,14.07
2018-03-27T00:56:56.989Z,14.37
2018-03-27T00:59:23.446Z,13.93
2018-03-27T01:01:49.717Z,13.10
2018-03-27T01:04:16.240Z,12.83
2018-03-27T01:06:42.594Z,13.60
2018-03-27T01:09:09.075Z,13.57
2018-03-27T01:11:35.455Z,14.27
2018-03-27T01:14:02.013Z,15.70
2018-03-27T01:16:28.612Z,15.63
2018-03-27T01:18:54.973Z,15.83
2018-03-27T01:21:21.693Z,14.23
2018-03-27T01:23:47.978Z,14.47
2018-03-27T01:26:14.345Z,15.97
2018-03-27T01:28:40.803Z,14.93
2018-03-27T01:31:07.171Z,15.80
2018-03-27T01:33:33.589Z,15.03
2018-03-27T01:35:59.885Z,14.43
2018-03-27T01:38:26.322Z,14.80
2018-03-27T01:40:52.583Z,14.83
2018-03-27T01:43:18.886Z,15.23
2018-03-27T01:45:45.249Z,14.10
2018-03-27T01:48:11.697Z,15.07
2018-03-27T01:50:38.089Z,14.50
2018-03-27T01:53:04.348Z,15.40
2018-03-27T01:55:30.812Z,14.10
2018-03-27T01:57:57.088Z,14.03
2018-03-27T02:00:23.341Z,13.83
2018-03-27T02:02:49.576Z,15.03
2018-03-27T02:05:16.375Z,14.53
2018-03-27T02:07:42.556Z,13.70
2018-03-27T02:10:08.834Z,13.13
2018-03-27T02:12:41.139Z,14.63
2018-03-27T02:15:13.552Z,13.77
2018-03-27T02:17:45.892Z,14.27
2018-03-27T02:20:18.175Z,15.23
2018-03-27T02:25:40.184Z,13.27
2018-03-27T02:28:06.492Z,13.87
2018-03-27T02:30:32.851Z,13.63
2018-03-27T02:32:59.105Z,13.63
2018-03-27T02:35:25.681Z,14.20
2018-03-27T02:37:51.945Z,13.33
2018-03-27T02:40:18.473Z,14.43
2018-03-27T02:42:44.783Z,13.27
2018-03-27T02:45:11.060Z,14.40
2018-03-27T02:47:37.701Z,14.60
2018-03-27T02:50:04.006Z,13.47
2018-03-27T02:52:30.474Z,13.80
2018-03-27T02:54:56.736Z,14.77
2018-03-27T02:57:23.216Z,13.43
2018-03-27T02:59:49.498Z,15.03
2018-03-27T03:02:15.871Z,13.10
2018-03-27T03:04:42.285Z,12.77
2018-03-27T03:07:08.588Z,14.33
2018-03-27T03:09:34.825Z,13.57
2018-03-27T03:12:01.136Z,12.37
2018-03-27T03:14:27.411Z,14.37
2018-03-27T03:16:53.664Z,13.23
2018-03-27T03:19:19.962Z,14.40
2018-03-27T03:21:46.245Z,13.87
2018-03-27T03:24:12.534Z,13.83
2018-03-27T03:26:38.847Z,13.90
2018-03-27T03:29:05.125Z,13.57
2018-03-27T03:31:31.406Z,14.40
2018-03-27T03:33:57.688Z,13.60
2018-03-27T03:36:23.976Z,14.80
2018-03-27T03:38:50.225Z,14.07
2018-03-27T03:41:16.512Z,14.63
2018-03-27T03:43:42.765Z,15.73
2018-03-27T03:46:09.070Z,14.03
2018-03-27T03:48:35.370Z,14.57
2018-03-27T03:51:01.628Z,14.90
2018-03-27T03:53:27.878Z,14.63
2018-03-27T03:55:54.180Z,15.47
2018-03-27T03:58:20.444Z,14.83
2018-03-27T04:00:46.762Z,14.23
2018-03-27T04:03:13.058Z,13.27
2018-03-27T04:05:39.291Z,13.87
2018-03-27T04:08:05.548Z,14.63
2018-03-27T04:10:31.816Z,14.17
2018-03-27T04:12:58.076Z,15.37
2018-03-27T04:15:24.368Z,15.37
2018-03-27T04:17:50.656Z,13.90
2018-03-27T04:20:16.944Z,15.90
2018-03-27T04:22:43.212Z,15.63
2018-03-27T04:25:09.513Z,15.40
2018-03-27T04:27:35.768Z,15.40
2018-03-27T04:30:02.037Z,17.23
2018-03-27T04:32:28.340Z,16.33
2018-03-27T04:34:54.593Z,23.97
2018-03-27T04:37:20.944Z,23.47
2018-03-27T04:39:47.292Z,19.33
2018-03-27T04:42:13.571Z,15.40
2018-03-27T04:44:39.850Z,15.33
2018-03-27T04:47:06.137Z,16.07
2018-03-27T04:49:33.468Z,15.83
2018-03-27T04:51:59.737Z,16.40
2018-03-27T04:54:26.008Z,15.20
2018-03-27T04:56:52.297Z,15.80
2018-03-27T04:59:18.557Z,16.17
2018-03-27T05:01:44.877Z,19.03
2018-03-27T05:04:11.161Z,17.03
2018-03-27T05:06:37.446Z,16.67
2018-03-27T05:09:03.833Z,16.60
2018-03-27T05:11:30.101Z,16.23
2018-03-27T05:13:56.331Z,18.57
2018-03-27T05:16:22.605Z,18.10
2018-03-27T05:18:48.847Z,18.63
2018-03-27T05:21:15.087Z,18.30
2018-03-27T05:23:41.393Z,18.30
2018-03-27T05:26:07.633Z,20.07
2018-03-27T05:28:33.872Z,18.87
2018-03-27T05:31:00.142Z,18.20
2018-03-27T05:33:26.372Z,17.37
2018-03-27T05:35:52.657Z,17.30
2018-03-27T05:38:18.937Z,18.07
2018-03-27T05:40:45.192Z,16.47
2018-03-27T05:43:11.484Z,16.57
2018-03-27T05:45:37.773Z,19.37
2018-03-27T05:48:04.040Z,17.53
2018-03-27T05:50:30.288Z,17.10
2018-03-27T05:52:56.581Z,18.67
2018-03-27T05:55:22.824Z,18.63
2018-03-27T05:57:49.080Z,20.67
2018-03-27T06:00:15.421Z,18.57
2018-03-27T06:02:41.681Z,45.80
2018-03-27T06:05:07.966Z,34.17
2018-03-27T06:07:34.234Z,21.90
2018-03-27T06:10:00.489Z,19.67
2018-03-27T06:12:26.723Z,20.47
2018-03-27T06:14:53.017Z,22.27
2018-03-27T06:17:19.313Z,21.03
2018-03-27T06:19:45.594Z,22.47
2018-03-27T06:22:11.876Z,21.10
2018-03-27T06:24:38.148Z,19.67
2018-03-27T06:27:04.421Z,20.60
2018-03-27T06:29:30.786Z,21.57
2018-03-27T06:31:57.032Z,18.97
2018-03-27T06:34:23.286Z,18.83
2018-03-27T06:36:49.557Z,18.00
2018-03-27T06:39:15.825Z,35.80
2018-03-27T06:41:42.075Z,20.40
2018-03-27T06:44:08.376Z,19.53
2018-03-27T06:46:34.621Z,19.20
2018-03-27T06:49:00.861Z,20.03
2018-03-27T06:51:27.133Z,19.40
2018-03-27T06:53:53.393Z,18.70
2018-03-27T06:56:19.656Z,19.43
2018-03-27T06:58:45.941Z,19.83
2018-03-27T07:01:12.234Z,21.53
2018-03-27T07:03:38.505Z,23.17
2018-03-27T07:06:04.812Z,23.90
2018-03-27T07:08:31.047Z,24.23
2018-03-27T07:10:57.293Z,24.27
2018-03-27T07:13:23.586Z,23.47
2018-03-27T07:15:49.859Z,25.40
2018-03-27T07:18:16.145Z,20.67
2018-03-27T07:20:42.411Z,23.23
2018-03-27T07:23:08.656Z,22.53
2018-03-27T07:25:34.904Z,22.33
2018-03-27T07:28:01.197Z,20.70
2018-03-27T07:30:27.433Z,21.27
2018-03-27T07:32:53.694Z,19.53
2018-03-27T07:35:19.980Z,20.13
2018-03-27T07:37:46.219Z,19.10
2018-03-27T07:40:12.485Z,21.30
2018-03-27T07:42:38.777Z,21.07
2018-03-27T07:45:05.038Z,18.80
2018-03-27T07:47:31.310Z,22.10
2018-03-27T07:49:57.588Z,20.40
2018-03-27T07:52:23.832Z,22.70
2018-03-27T07:54:50.080Z,20.47
2018-03-27T07:57:16.381Z,20.47
2018-03-27T07:59:42.660Z,20.93
2018-03-27T08:02:08.901Z,19.53
2018-03-27T08:04:35.220Z,20.00
2018-03-27T08:07:01.481Z,19.73
2018-03-27T08:09:27.737Z,17.40
2018-03-27T08:11:54.287Z,18.43
2018-03-27T08:14:20.530Z,19.50
2018-03-27T08:16:46.777Z,19.37
2018-03-27T08:19:13.060Z,19.83
2018-03-27T08:21:39.292Z,19.73
2018-03-27T08:24:05.603Z,20.40
2018-03-27T08:26:31.844Z,16.80
2018-03-27T08:28:58.084Z,17.63
2018-03-27T08:31:24.346Z,17.47
2018-03-27T08:33:50.623Z,17.03
2018-03-27T08:36:16.945Z,16.63
2018-03-27T08:38:43.137Z,16.33
2018-03-27T08:41:09.440Z,16.60
2018-03-27T08:43:35.702Z,16.30
2018-03-27T08:46:01.988Z,16.30
2018-03-27T08:48:28.264Z,16.43
2018-03-27T08:50:54.544Z,16.40
2018-03-27T08:53:20.792Z,15.97
2018-03-27T08:55:47.073Z,13.83
2018-03-27T08:58:13.336Z,15.03
2018-03-27T09:00:39.614Z,14.23
2018-03-27T09:03:05.897Z,13.67
2018-03-27T09:05:32.141Z,13.20
2018-03-27T09:07:58.388Z,13.93
2018-03-27T09:10:24.671Z,13.23
2018-03-27T09:12:50.925Z,12.70
2018-03-27T09:15:17.168Z,13.87
2018-03-27T09:17:43.452Z,13.60
2018-03-27T09:20:09.693Z,13.80
2018-03-27T09:22:35.950Z,14.80
2018-03-27T09:25:02.288Z,13.23
2018-03-27T09:27:28.516Z,14.00
2018-03-27T09:29:54.788Z,15.07
2018-03-27T09:32:21.072Z,13.33
2018-03-27T09:34:47.320Z,12.27
2018-03-27T09:37:13.592Z,12.07
2018-03-27T09:39:39.895Z,10.67
2018-03-27T09:42:06.145Z,11.33
2018-03-27T09:44:32.400Z,10.77
2018-03-27T09:46:58.676Z,10.50
2018-03-27T09:49:24.941Z,10.73
2018-03-27T09:51:51.196Z,10.10
2018-03-27T09:54:17.508Z,10.70
2018-03-27T09:56:43.764Z,10.73
2018-03-27T09:59:10.049Z,10.80
2018-03-27T10:01:39.312Z,12.40
2018-03-27T10:04:05.620Z,10.90
2018-03-27T10:06:31.881Z,11.30
2018-03-27T10:08:58.178Z,11.37
2018-03-27T10:11:24.432Z,10.53
2018-03-27T10:13:50.685Z,12.03
2018-03-27T10:16:16.994Z,11.30
2018-03-27T10:18:43.241Z,10.33
2018-03-27T10:21:09.489Z,10.60
2018-03-27T10:23:35.772Z,10.70
2018-03-27T10:26:02.022Z,10.77
2018-03-27T10:28:28.300Z,11.10
2018-03-27T10:30:55.228Z,11.10
2018-03-27T10:33:21.501Z,11.97
2018-03-27T10:35:47.794Z,10.57
2018-03-27T10:38:14.844Z,8.87
2018-03-27T10:40:41.093Z,8.23
2018-03-27T10:43:07.348Z,8.80
2018-03-27T10:45:33.672Z,9.03
2018-03-27T10:47:59.929Z,10.30
2018-03-27T10:50:26.213Z,9.30
2018-03-27T10:52:52.485Z,9.70
2018-03-27T10:55:18.728Z,10.50
2018-03-27T10:57:45.001Z,10.60
2018-03-27T11:00:11.305Z,9.00
2018-03-27T11:02:37.565Z,10.00
2018-03-27T11:05:03.873Z,10.57
2018-03-27T11:07:30.156Z,10.63
2018-03-27T11:09:56.418Z,10.33
2018-03-27T11:12:22.679Z,9.07
2018-03-27T11:14:48.952Z,9.37
2018-03-27T11:17:15.187Z,8.63
2018-03-27T11:19:41.463Z,9.07
2018-03-27T11:22:07.746Z,8.63
2018-03-27T11:24:33.993Z,8.30
2018-03-27T11:27:00.250Z,8.20
2018-03-27T11:29:26.561Z,7.70
2018-03-27T11:31:52.815Z,7.87
2018-03-27T11:34:19.060Z,7.97
2018-03-27T11:36:45.328Z,7.40
2018-03-27T11:39:11.577Z,8.30
2018-03-27T11:41:37.852Z,7.73
2018-03-27T11:44:04.150Z,7.67
2018-03-27T11:46:30.390Z,7.60
2018-03-27T11:48:56.661Z,6.67
2018-03-27T11:51:22.975Z,7.63
2018-03-27T11:53:49.255Z,7.93
2018-03-27T11:56:15.527Z,7.65
2018-03-27T11:58:41.800Z,8.15
2018-03-27T12:01:08.048Z,9.43
2018-03-27T12:03:34.301Z,8.52
2018-03-27T12:06:00.577Z,8.73
2018-03-27T12:08:26.849Z,9.33
2018-03-27T12:10:53.087Z,8.43
2018-03-27T12:13:19.401Z,9.97
2018-03-27T12:15:45.661Z,10.57
2018-03-27T12:18:11.908Z,10.93
2018-03-27T12:20:38.215Z,10.23
2018-03-27T12:23:04.464Z,10.03
2018-03-27T12:25:30.716Z,11.00
2018-03-27T12:27:56.998Z,10.60
2018-03-27T12:30:23.243Z,9.70
2018-03-27T12:32:49.505Z,10.77
2018-03-27T12:35:16.352Z,9.87
2018-03-27T12:37:42.612Z,10.40
2018-03-27T12:40:08.873Z,11.17
2018-03-27T12:42:35.153Z,11.00
2018-03-27T12:45:01.394Z,11.83
2018-03-27T12:47:27.627Z,11.13
2018-03-27T12:49:53.932Z,10.70
2018-03-27T12:52:20.187Z,10.47
2018-03-27T12:54:46.460Z,10.73
2018-03-27T12:57:12.780Z,9.73
2018-03-27T12:59:39.013Z,10.50
2018-03-27T13:02:05.257Z,10.70
2018-03-27T13:04:31.529Z,11.53
2018-03-27T13:06:57.768Z,10.70
2018-03-27T13:09:24.024Z,10.67
2018-03-27T13:11:50.334Z,10.53
2018-03-27T13:14:16.600Z,10.60
2018-03-27T13:16:42.864Z,11.20
2018-03-27T13:19:09.184Z,11.20
2018-03-27T13:21:35.450Z,10.83
2018-03-27T13:24:01.715Z,11.17
2018-03-27T13:26:27.982Z,11.83
2018-03-27T13:28:54.240Z,11.57
2018-03-27T13:31:20.528Z,10.93
2018-03-27T13:33:46.796Z,10.17
2018-03-27T13:36:13.033Z,10.23
2018-03-27T13:38:39.265Z,10.80
2018-03-27T13:41:05.565Z,10.93
2018-03-27T13:43:31.822Z,10.40
2018-03-27T13:45:58.101Z,10.43
2018-03-27T13:48:24.380Z,10.95
2018-03-27T13:50:50.630Z,11.45
2018-03-27T13:53:16.886Z,12.18
2018-03-27T13:55:43.162Z,12.07
2018-03-27T13:58:09.416Z,12.90
2018-03-27T14:00:35.657Z,12.65
2018-03-27T14:03:01.961Z,14.00
2018-03-27T14:05:28.247Z,12.93
2018-03-27T14:07:54.508Z,13.00
2018-03-27T14:10:20.801Z,13.50
2018-03-27T14:12:47.042Z,12.87
2018-03-27T14:15:13.296Z,13.10
2018-03-27T14:17:39.561Z,12.53
2018-03-27T14:20:05.812Z,13.37
2018-03-27T14:22:32.075Z,12.00
2018-03-27T14:24:58.389Z,11.80
2018-03-27T14:27:24.641Z,12.17
2018-03-27T14:29:50.881Z,10.67
2018-03-27T14:32:17.153Z,10.77
2018-03-27T14:34:43.391Z,11.60
2018-03-27T14:37:09.636Z,9.67
2018-03-27T14:39:35.937Z,10.30
2018-03-27T14:42:02.219Z,9.00
2018-03-27T14:44:28.495Z,9.53
2018-03-27T14:46:54.778Z,9.93
2018-03-27T14:49:21.041Z,9.67
2018-03-27T14:51:47.329Z,8.83
2018-03-27T14:54:13.612Z,10.40
2018-03-27T14:56:39.840Z,9.33
2018-03-27T14:59:06.100Z,9.60
2018-03-27T15:01:32.388Z,9.40
2018-03-27T15:03:58.652Z,10.17
2018-03-27T15:06:25.244Z,9.50
2018-03-27T15:08:51.746Z,10.20
2018-03-27T15:11:17.976Z,10.37
2018-03-27T15:13:44.210Z,10.80
2018-03-27T15:16:10.476Z,10.27
2018-03-27T15:18:36.724Z,10.10
2018-03-27T15:21:03.036Z,10.17
2018-03-27T15:23:29.321Z,9.03
2018-03-27T15:25:55.588Z,10.43
2018-03-27T15:28:21.845Z,9.60
2018-03-27T15:30:48.774Z,9.40
2018-03-27T15:33:15.038Z,10.27
2018-03-27T15:35:41.295Z,9.80
2018-03-27T15:38:07.588Z,9.63
2018-03-27T15:40:33.843Z,9.87
2018-03-27T15:43:00.098Z,9.80
2018-03-27T15:45:26.365Z,9.83
2018-03-27T15:47:52.596Z,10.00
2018-03-27T15:50:18.832Z,9.97
2018-03-27T15:52:45.097Z,9.50
2018-03-27T15:55:11.342Z,10.03
2018-03-27T15:57:37.577Z,9.43
2018-03-27T16:00:04.010Z,9.20
2018-03-27T16:02:30.249Z,9.90
2018-03-27T16:04:56.592Z,11.33
2018-03-27T16:07:23.285Z,10.63
2018-03-27T16:09:49.654Z,11.70
2018-03-27T16:12:15.949Z,9.90
2018-03-27T16:14:42.459Z,9.87
2018-03-27T16:17:08.702Z,9.90
2018-03-27T16:19:35.223Z,10.23
2018-03-27T16:22:01.523Z,10.07
2018-03-27T16:24:27.950Z,10.30
2018-03-27T16:26:54.186Z,10.00
2018-03-27T16:29:20.638Z,9.73
2018-03-27T16:31:46.920Z,10.27
2018-03-27T16:34:13.316Z,10.63
2018-03-27T16:36:39.613Z,10.03
2018-03-27T16:39:05.916Z,10.33
2018-03-27T16:41:32.398Z,10.60
2018-03-27T16:43:58.677Z,10.40
2018-03-27T16:46:24.912Z,9.60
2018-03-27T16:48:51.243Z,9.20
2018-03-27T16:51:17.534Z,9.70
2018-03-27T16:53:43.804Z,9.30
2018-03-27T16:56:10.034Z,9.77
2018-03-27T16:58:36.318Z,9.43
2018-03-27T17:01:02.612Z,9.53
2018-03-27T17:03:28.873Z,8.93
2018-03-27T17:05:55.194Z,8.70
2018-03-27T17:08:21.427Z,8.53
2018-03-27T17:10:47.691Z,8.60
2018-03-27T17:13:13.960Z,8.37
2018-03-27T17:15:40.197Z,8.83
2018-03-27T17:18:06.424Z,8.70
2018-03-27T17:20:32.723Z,8.97
2018-03-27T17:22:58.962Z,8.90
2018-03-27T17:25:25.200Z,9.87
2018-03-27T17:27:51.494Z,8.37
2018-03-27T17:30:17.749Z,8.37
2018-03-27T17:32:43.980Z,8.43
2018-03-27T17:35:10.277Z,9.37
2018-03-27T17:37:36.633Z,8.33
2018-03-27T17:40:02.888Z,9.90
2018-03-27T17:42:29.161Z,8.63
2018-03-27T17:44:55.404Z,9.83
2018-03-27T17:47:21.689Z,9.73
2018-03-27T17:49:47.968Z,10.23
2018-03-27T17:52:14.208Z,10.03
2018-03-27T17:54:41.233Z,9.10
2018-03-27T17:57:07.495Z,10.40
2018-03-27T17:59:33.761Z,11.00
2018-03-27T18:01:59.999Z,9.80
2018-03-27T18:04:26.303Z,10.63
2018-03-27T18:06:52.541Z,11.53
2018-03-27T18:09:18.782Z,9.90
2018-03-27T18:11:45.066Z,10.50
2018-03-27T18:14:11.302Z,10.37
2018-03-27T18:16:37.536Z,10.23
2018-03-27T18:19:03.842Z,10.63
2018-03-27T18:21:30.080Z,10.30
2018-03-27T18:23:56.409Z,11.40
2018-03-27T18:26:22.644Z,10.03
2018-03-27T18:28:48.894Z,9.97
2018-03-27T18:31:15.182Z,9.20
2018-03-27T18:33:41.489Z,9.87
2018-03-27T18:36:07.784Z,10.07
2018-03-27T18:38:34.022Z,10.13
2018-03-27T18:41:00.325Z,11.43
2018-03-27T18:43:26.573Z,11.33
2018-03-27T18:45:52.808Z,9.53
2018-03-27T18:48:19.085Z,10.00
2018-03-27T18:50:45.360Z,9.23
2018-03-27T18:53:11.608Z,9.87
2018-03-27T18:55:37.895Z,9.63
2018-03-27T18:58:04.150Z,9.47
2018-03-27T19:00:30.419Z,9.57
2018-03-27T19:02:56.700Z,8.93
2018-03-27T19:05:22.976Z,9.47
2018-03-27T19:07:50.358Z,11.47
2018-03-27T19:10:16.649Z,10.87
2018-03-27T19:12:42.917Z,10.43
2018-03-27T19:15:09.153Z,14.23
2018-03-27T19:17:35.412Z,11.63
2018-03-27T19:20:01.689Z,10.57
2018-03-27T19:22:27.925Z,10.80
2018-03-27T19:24:54.192Z,11.57
2018-03-27T19:27:20.448Z,10.97
2018-03-27T19:29:46.705Z,10.57
2018-03-27T19:32:13.044Z,10.57
2018-03-27T19:34:39.296Z,10.93
2018-03-27T19:37:05.541Z,11.80
2018-03-27T19:39:31.835Z,11.23
2018-03-27T19:41:58.084Z,11.67
2018-03-27T19:44:24.332Z,11.83
2018-03-27T19:46:50.661Z,11.10
2018-03-27T19:49:16.904Z,10.50
2018-03-27T19:51:43.149Z,11.70
2018-03-27T19:54:09.440Z,10.67
2018-03-27T19:56:35.699Z,10.27
2018-03-27T19:59:01.953Z,9.97
2018-03-27T20:01:28.282Z,9.30
2018-03-27T20:03:54.520Z,9.87
2018-03-27T20:06:20.757Z,9.57
2018-03-27T20:08:47.029Z,8.63
2018-03-27T20:11:13.267Z,10.13
2018-03-27T20:13:39.502Z,12.27
2018-03-27T20:16:05.784Z,11.07
2018-03-27T20:18:32.036Z,10.53
2018-03-27T20:20:58.274Z,9.17
2018-03-27T20:23:24.544Z,9.57
2018-03-27T20:25:50.820Z,8.83
2018-03-27T20:28:17.104Z,9.00
2018-03-27T20:30:43.510Z,9.40
2018-03-27T20:33:09.829Z,9.37
2018-03-27T20:35:36.076Z,9.33
2018-03-27T20:38:02.374Z,9.13
2018-03-27T20:40:28.633Z,9.10
2018-03-27T20:42:54.886Z,9.60
2018-03-27T20:45:21.167Z,9.13
2018-03-27T20:47:47.413Z,9.27
2018-03-27T20:50:13.694Z,8.97
2018-03-27T20:52:39.960Z,9.20
2018-03-27T20:55:06.201Z,9.00
2018-03-27T20:57:32.510Z,28.27
2018-03-27T20:59:58.791Z,24.40
2018-03-27T21:02:25.084Z,9.13
2018-03-27T21:04:51.320Z,9.80
2018-03-27T21:07:18.348Z,10.17
2018-03-27T21:09:44.581Z,9.93
2018-03-27T21:12:10.923Z,9.27
2018-03-27T21:14:37.180Z,9.40
2018-03-27T21:17:03.411Z,9.57
2018-03-27T21:19:29.656Z,10.00
2018-03-27T21:21:55.931Z,9.70
2018-03-27T21:24:22.169Z,9.37
2018-03-27T21:26:48.407Z,9.03
2018-03-27T21:29:14.703Z,9.97
2018-03-27T21:31:40.945Z,9.13
2018-03-27T21:34:07.210Z,9.70
2018-03-27T21:36:33.469Z,15.77
2018-03-27T21:38:59.717Z,19.00
2018-03-27T21:41:25.960Z,10.80
2018-03-27T21:43:52.243Z,9.77
2018-03-27T21:46:18.483Z,9.80
2018-03-27T21:48:44.725Z,8.87
2018-03-27T21:51:10.997Z,9.80
2018-03-27T21:53:37.227Z,9.63
2018-03-27T21:56:03.497Z,9.60
2018-03-27T21:58:29.782Z,9.93
2018-03-27T22:00:56.020Z,8.53
2018-03-27T22:03:22.300Z,10.03
2018-03-27T22:05:48.565Z,10.77
2018-03-27T22:08:14.808Z,9.13
2018-03-27T22:10:41.053Z,9.93
2018-03-27T22:13:07.321Z,10.27
2018-03-27T22:15:33.558Z,10.30
2018-03-27T22:17:59.789Z,10.20
2018-03-27T22:20:26.046Z,8.90
2018-03-27T22:22:52.288Z,9.37
2018-03-27T22:25:18.541Z,10.80
2018-03-27T22:27:44.827Z,9.43
2018-03-27T22:30:11.080Z,9.10
2018-03-27T22:32:37.421Z,9.57
2018-03-27T22:35:03.717Z,9.33
2018-03-27T22:37:29.998Z,9.47
2018-03-27T22:39:56.249Z,10.70
2018-03-27T22:42:22.509Z,9.37
2018-03-27T22:44:48.740Z,9.93
2018-03-27T22:47:15.007Z,10.27
2018-03-27T22:49:41.272Z,9.50
2018-03-27T22:52:07.512Z,9.53
2018-03-27T22:54:33.742Z,9.13
2018-03-27T22:57:00.016Z,10.10
2018-03-27T22:59:26.255Z,9.13
2018-03-27T23:01:52.526Z,10.37
2018-03-27T23:04:18.785Z,10.03
2018-03-27T23:06:45.051Z,15.77
2018-03-27T23:09:11.271Z,12.40
2018-03-27T23:11:37.531Z,10.13
2018-03-27T23:14:03.842Z,9.90
2018-03-27T23:16:30.101Z,10.80
2018-03-27T23:18:56.378Z,9.53
2018-03-27T23:21:22.642Z,9.73
2018-03-27T23:23:48.872Z,10.20
2018-03-27T23:26:15.136Z,10.10
2018-03-27T23:28:41.369Z,9.73
2018-03-27T23:31:07.602Z,9.97
2018-03-27T23:33:33.905Z,10.27
2018-03-27T23:36:00.136Z,10.30
2018-03-27T23:38:26.379Z,9.93
2018-03-27T23:40:52.709Z,10.70
2018-03-27T23:43:19.016Z,10.33
2018-03-27T23:45:45.297Z,10.47
2018-03-27T23:48:11.545Z,10.27
2018-03-27T23:50:37.821Z,11.57
2018-03-27T23:53:04.072Z,10.47
2018-03-27T23:55:30.357Z,11.00
2018-03-27T23:57:56.610Z,10.60
